Alvaton, GA

5:24 AM EST on December 29, 2014 (GMT -0500)
Georgia Jets Airfield | Change Station
CLOSE
Current Station
Personal Weather Station
Location: Gay, GA
Elevation: 870 ft
Nearby Weather Stations

Elev 870 ft 33.14 °N, 84.61 °W | Updated 10 seconds ago

Rain
Rain
53.9 °F
Feels Like 53.9 °F
N
0.0
Wind Variable Wind from SE
Gusts 0.0 mph

Today
High -- | Low -- °F
--% Chance of Precip.
Yesterday
High -- | Low -- °F
Precip. -- in
7:40 AM 5:40 PM
First Quarter, 57% visible
Pressure 30.04 in
Visibility 6.0 miles
Clouds Overcast 6000 ft
Dew Point 52 °F
Humidity 94%
Rainfall 0.18 in
Snow Depth Not available.
UV 0 out of 12
Pollen .30 out of 12
Air Quality Not available.
Flu Activity Not available.
METAR KFFC 290953Z AUTO 00000KT 6SM -RA BR OVC060 12/12 A3004 RMK AO2 SLP172 P0002 T01220117

More Conditions Fewer Conditions

Pressure 30.04 in
Visibility 6.0 miles
Clouds Overcast 6000 ft
Dew Point 52 °F
Humidity 94%
Rainfall 0.18 in
Snow Depth Not available.
UV 0 out of 12
Pollen .30 out of 12
Air Quality Not available.
Flu Activity Not available.
METAR KFFC 290953Z AUTO 00000KT 6SM -RA BR OVC060 12/12 A3004 RMK AO2 SLP172 P0002 T01220117

More Conditions Fewer Conditions

10-Day Weather Forecast

Almanac

Astronomy

Dec. 29, 2014 Rise Set
Actual Time
Civil Twilight
Nautical Twilight
Astronomical Twilight
Moon
Length of Visible Light
Length of Day
Tomorrow will be .
, % of the Moon is Illuminated

Today's Extremes

State Highs State Lows

Community

WunderPhotos

Upload Photos

1,781,563 photos uploaded!

WunderBlogs® & News

Nearby

Air Quality

  Air Quality AQ Index Pollutant
Not available.

Snow Depth

Station Depth Elevation

Earthquake Activity

City Distance Mag. Time & Date
Minimum magnitude displayed is 2.5.

Coastal Water Temperatures

Place Temperature

Nearby Weather Stations